Terminal Aerodrome Forecast
Issued by NWS

Home | Current Version | Previous Version | Text Only | Print | Product List | Glossary On
Versions: 1 2 3 4 5 6 7 8 9 10 11 12 13 14 15 16 17
000
FTUS45 KABQ 301141
TAFLVS
TAF
KLVS 301141Z 3012/3112 05009KT P6SM SCT015 BKN035
      TEMPO 3012/3014 BKN018
     FM301600 12010KT P6SM BKN040
     FM301900 19010G18KT P6SM BKN050
     FM302100 18013KT P6SM VCTS SCT060CB BKN120
     FM310000 17010KT P6SM VCSH BKN060=

USA.gov is the U.S. government's official web portal to all federal, state and local government web resources and services.